Latest Weather Observations for Montague Island

IDN60901

Issued at 11:41 pm EDT Saturday 10 December 2016 (issued every 10 minutes, with the page automatically refreshed every 10 minutes)

About weather observations | Map of Canberra area stations | Latest observations for Canberra area | Other Formats
Station Details ID: 069017 Name: MONTAGUE ISLAND LIGHTHOUSE Lat: -36.25 Lon: 150.23 Height: 52.0 m
Data from the previous 72 hours. | See also: Recent months at Montague Island
Date/Time
EDT
Temp
°C
App
Temp
°C
Dew
Point
°C
Rel
Hum
%
Delta-T
°C
Wind Press
QNH
hPa
Press
MSL
hPa
Rain since
9am
mm
Dir  Spd
km/h
Gust
km/h
Spd
kts
Gust
kts
10/11:30pm 17.2 16.4 12.9 76 2.4 ENE 9 13 5 7 1022.8 1022.7 0.0
10/11:00pm 17.2 16.7 12.7 75 2.5 ENE 7 15 4 8 1022.6 1022.5 0.0
10/10:30pm 17.3 16.8 12.6 74 2.6 E 7 13 4 7 1022.8 1022.7 0.0
10/10:00pm 17.4 16.0 12.3 72 2.8 NE 11 15 6 8 1022.8 1022.7 0.0
10/09:30pm 17.7 16.7 12.2 70 3.0 NE 9 13 5 7 1022.6 1022.5 0.0
10/09:00pm 17.6 16.5 11.9 69 3.1 ENE 9 13 5 7 1022.1 1022.0 0.0
10/08:30pm 17.6 16.2 12.1 70 3.0 E 11 15 6 8 1021.9 1021.8 0.0
10/08:00pm 17.6 16.1 11.9 69 3.1 ENE 11 15 6 8 1021.6 1021.5 0.0
10/07:30pm 17.6 16.0 11.6 68 3.3 E 11 17 6 9 1021.3 1021.2 0.0
10/07:00pm 17.7 15.8 11.7 68 3.3 E 13 17 7 9 1021.1 1021.0 0.0
10/06:30pm 17.8 15.8 11.4 66 3.5 E 13 17 7 9 1020.7 1020.6 0.0
10/06:00pm 18.0 15.7 11.6 66 3.5 E 15 20 8 11 1020.5 1020.4 0.0
10/05:30pm 18.2 15.8 11.5 65 3.7 E 15 20 8 11 1020.6 1020.5 0.0
10/05:00pm 18.9 17.1 12.2 65 3.7 E 13 22 7 12 1020.6 1020.5 0.0
10/04:30pm 18.8 16.8 11.6 63 4.0 E 13 20 7 11 1020.7 1020.6 0.0
10/04:00pm 18.6 16.4 10.9 61 4.2 E 13 20 7 11 1020.8 1020.7 0.0
10/03:30pm 18.9 15.7 11.2 61 4.2 E 19 24 10 13 1020.9 1020.8 0.0
10/03:00pm 18.6 15.5 10.4 59 4.4 E 17 24 9 13 1021.1 1021.0 0.0
10/02:30pm 18.7 15.1 10.0 57 4.6 E 19 24 10 13 1021.2 1021.1 0.0
10/02:00pm 18.8 15.3 10.1 57 4.6 E 19 24 10 13 1021.3 1021.2 0.0
10/01:30pm 18.1 14.3 8.9 55 4.8 ESE 19 24 10 13 1021.5 1021.4 0.0
10/01:00pm 18.2 14.5 9.3 56 4.7 ESE 19 26 10 14 1021.7 1021.6 0.0
10/12:30pm 18.5 15.0 8.7 53 5.1 E 17 22 9 12 1022.0 1021.9 0.0
10/12:00pm 18.1 14.3 9.2 56 4.6 ESE 19 26 10 14 1022.1 1022.0 0.0
10/11:30am 17.8 14.7 7.2 50 5.3 SE 13 17 7 9 1022.3 1022.2 0.0
10/11:00am 17.5 13.7 7.5 52 5.0 SE 17 20 9 11 1022.5 1022.4 0.0
10/10:30am 17.6 14.1 7.1 50 5.3 SE 15 20 8 11 1022.6 1022.5 0.0
10/10:00am 17.6 14.3 6.5 48 5.5 SSE 13 20 7 11 1022.6 1022.5 0.0
10/09:30am 17.7 14.8 6.6 48 5.5 S 11 15 6 8 1022.6 1022.5 0.0
10/09:00am 17.2 14.5 7.5 53 4.9 SSW 11 15 6 8 1022.6 1022.5 0.0
10/08:30am 16.2 12.9 6.3 52 4.8 SSW 13 17 7 9 1022.4 1022.3 0.0
10/08:00am 15.6 12.1 7.1 57 4.2 SW 15 19 8 10 1022.2 1022.1 0.0
10/07:30am 15.2 11.7 7.3 59 3.9 SW 15 19 8 10 1021.8 1021.7 0.0
10/07:00am 14.6 11.1 7.2 61 3.6 SW 15 19 8 10 1021.5 1021.4 0.0
10/06:30am 15.1 11.6 7.2 59 3.9 SW 15 20 8 11 1021.0 1020.9 0.0
10/06:00am 14.5 10.6 7.1 61 3.6 SW 17 24 9 13 1020.6 1020.5 0.0
10/05:30am 14.3 9.6 5.9 57 4.0 SSW 20 26 11 14 1020.2 1020.1 0.0
10/05:00am 14.4 9.6 5.7 56 4.1 SSW 20 28 11 15 1019.8 1019.6 0.0
10/04:30am 14.6 9.5 5.9 56 4.2 SSW 22 32 12 17 1019.4 1019.2 0.0
10/04:00am 14.7 8.8 6.0 56 4.2 SSW 26 33 14 18 1019.0 1018.8 0.0
10/03:30am 14.9 8.4 6.7 58 4.0 SSW 30 39 16 21 1018.9 1018.7 0.0
10/03:00am 15.0 8.6 6.8 58 4.0 SSW 30 37 16 20 1018.8 1018.6 0.0
10/02:30am 15.0 8.8 6.0 55 4.3 SSW 28 37 15 20 1018.6 1018.4 0.0
10/02:00am 15.0 8.3 5.5 53 4.5 SSW 30 37 16 20 1018.5 1018.3 0.0
10/01:30am 15.3 8.6 5.5 52 4.7 SSW 30 39 16 21 1018.5 1018.3 0.0
10/01:00am 15.8 9.3 6.5 54 4.5 SSW 30 39 16 21 1018.5 1018.3 0.0
10/12:30am 16.0 10.1 5.9 51 4.9 SSW 26 33 14 18 1018.7 1018.5 0.0
10/12:00am 16.1 10.0 6.5 53 4.7 SSW 28 35 15 19 1018.6 1018.4 0.0
 
Date/Time
EDT
Temp
°C
App
Temp
°C
Dew
Point
°C
Rel
Hum
%
Delta-T
°C
Wind Press
QNH
hPa
Press
MSL
hPa
Rain since
9am
mm
Dir  Spd
km/h
Gust
km/h
Spd
kts
Gust
kts
09/11:30pm 16.5 11.3 7.4 55 4.6 SW 24 32 13 17 1018.5 1018.3 0.0
09/11:00pm 16.4 11.2 8.9 61 3.9 SSW 26 33 14 18 1018.2 1018.0 0.0
09/10:30pm 16.5 11.3 8.7 60 4.0 SSW 26 32 14 17 1017.7 1017.5 0.0
09/10:00pm 16.7 10.8 8.9 60 4.0 SSW 30 35 16 19 1017.2 1017.0 0.0
09/09:30pm 16.9 12.0 9.8 63 3.7 S 26 33 14 18 1016.9 1016.7 0.0
09/09:00pm 16.9 11.2 9.8 63 3.7 S 30 39 16 21 1016.1 1015.9 0.0
09/08:30pm 16.9 9.4 9.6 62 3.8 S 39 44 21 24 1014.7 1014.5 0.0
09/08:00pm 17.4 10.0 9.8 61 4.0 S 39 46 21 25 1014.0 1013.8 0.0
09/07:30pm 17.5 10.3 10.6 64 3.7 SSE 39 46 21 25 1013.3 1013.1 0.0
09/07:00pm 17.8 9.9 9.4 58 4.4 SSE 41 48 22 26 1012.6 1012.5 0.0
09/06:30pm 17.9 10.5 9.8 59 4.3 SSE 39 46 21 25 1012.0 1011.9 0.0
09/06:00pm 17.9 10.0 9.5 58 4.4 SSE 41 46 22 25 1011.2 1011.1 0.0
09/05:30pm 19.0 12.3 9.8 55 4.9 SSE 35 43 19 23 1010.8 1010.7 0.0
09/05:00pm 18.0 11.5 10.4 61 4.1 SSE 35 43 19 23 1010.7 1010.6 0.0
09/04:30pm 18.5 12.1 9.3 55 4.8 SSE 33 39 18 21 1010.6 1010.5 0.0
09/04:00pm 20.5 13.3 6.1 39 7.2 S 33 41 18 22 1010.2 1010.1 0.0
09/03:30pm 20.8 12.9 4.4 34 8.0 S 35 46 19 25 1009.8 1009.7 0.0
09/03:00pm 21.2 13.6 3.9 32 8.4 S 33 41 18 22 1009.7 1009.6 0.0
09/02:30pm 20.6 12.7 4.2 34 7.9 S 35 43 19 23 1009.5 1009.4 0.0
09/02:00pm 21.1 14.0 3.8 32 8.3 SSW 30 39 16 21 1009.0 1008.9 0.0
09/01:30pm 21.6 15.1 4.7 33 8.3 S 28 39 15 21 1009.3 1009.2 0.0
09/01:00pm 21.2 14.8 5.1 35 8.0 SSW 28 37 15 20 1009.2 1009.1 0.0
09/12:30pm 20.7 14.7 3.4 32 8.2 SSW 24 30 13 16 1009.2 1009.1 0.0
09/12:00pm 20.6 15.5 3.3 32 8.2 SSW 19 28 10 15 1009.1 1009.0 0.0
09/11:30am 20.4 14.4 3.6 33 8.0 SW 24 32 13 17 1008.8 1008.7 0.0
09/11:00am 19.7 15.1 5.4 39 7.0 SSW 19 24 10 13 1008.7 1008.6 0.0
09/10:30am 19.4 14.4 4.7 38 7.1 SW 20 28 11 15 1008.5 1008.4 0.0
09/10:00am 18.5 12.7 6.4 45 6.0 SW 26 33 14 18 1008.3 1008.2 0.0
09/09:30am 17.9 12.1 6.4 47 5.7 SW 26 33 14 18 1008.1 1008.0 0.0
09/09:00am 17.3 9.7 5.9 47 5.6 SW 35 46 19 25 1007.5 1007.4 0.0
09/08:30am 16.1 10.6 7.6 57 4.3 SW 26 39 14 21 1007.2 1007.1 0.0
09/08:00am 15.7 9.6 6.4 54 4.5 SW 28 33 15 18 1006.6 1006.5 0.0
09/07:30am 15.7 8.9 6.7 55 4.4 SW 32 37 17 20 1006.0 1005.9 0.0
09/07:00am 15.6 8.7 7.1 57 4.2 SW 33 41 18 22 1005.2 1005.1 0.0
09/06:30am 15.6 9.3 7.4 58 4.1 SW 30 44 16 24 1004.6 1004.5 0.0
09/06:00am 15.9 9.4 8.2 60 3.9 SW 32 41 17 22 1004.1 1004.0 0.0
09/05:30am 16.3 10.0 8.8 61 3.9 SW 32 41 17 22 1003.5 1003.3 0.0
09/05:00am 16.9 11.7 10.1 64 3.6 SW 28 39 15 21 1002.6 1002.4 0.0
09/04:30am 17.1 11.5 11.4 69 3.1 SSW 32 37 17 20 1002.0 1001.8 0.0
09/04:00am 17.6 14.4 13.1 75 2.5 S 22 30 12 16 1001.9 1001.7 0.0
09/03:30am 18.1 16.2 13.0 72 2.9 SSW 15 24 8 13 1001.4 1001.2 0.0
09/03:00am 18.7 15.6 8.7 52 5.2 W 15 19 8 10 1000.9 1000.7 0.0
09/02:30am 18.4 15.3 8.7 53 5.0 W 15 19 8 10 1000.3 1000.1 0.0
09/02:00am 18.8 14.9 8.7 52 5.3 W 19 22 10 12 1000.0 999.8 0.0
09/01:30am 19.3 14.7 8.0 48 5.8 W 22 28 12 15 999.8 999.6 0.0
09/01:00am 18.3 16.3 12.7 70 3.2 WSW 15 20 8 11 999.8 999.6 0.0
09/12:30am 17.2 15.6 15.0 87 1.3 WSW 17 24 9 13 999.3 999.1 0.0
09/12:00am 17.5 17.0 16.0 91 0.9 SSW 13 17 7 9 999.4 999.2 0.0
 
Date/Time
EDT
Temp
°C
App
Temp
°C
Dew
Point
°C
Rel
Hum
%
Delta-T
°C
Wind Press
QNH
hPa
Press
MSL
hPa
Rain since
9am
mm
Dir  Spd
km/h
Gust
km/h
Spd
kts
Gust
kts
08/11:30pm 17.7 16.5 16.0 90 1.0 SSW 17 22 9 12 999.5 999.3 0.0
08/11:00pm 18.0 15.9 16.2 89 1.1 SSW 22 28 12 15 999.1 998.9 0.0
08/10:30pm 18.0 14.8 16.3 90 1.0 S 28 33 15 18 998.9 998.7 0.0
08/10:00pm 18.3 14.6 17.0 92 0.8 SSW 32 39 17 21 998.7 998.5 0.0
08/09:30pm 18.9 14.6 17.7 93 0.7 SSW 37 48 20 26 997.4 997.2 0.0
08/09:00pm 20.4 18.0 18.3 88 1.3 SW 28 41 15 22 996.6 996.4 0.0
08/08:55pm 21.5 20.7 19.2 87 1.5 WSW 22 37 12 20 996.3 996.1 0.0
08/08:30pm 21.9 23.6 20.2 90 1.1 WNW 11 15 6 8 995.8 995.6 0.0
08/08:00pm 22.0 22.4 20.6 92 0.9 N 19 24 10 13 995.6 995.4 0.0
08/07:30pm 22.3 22.1 20.6 90 1.1 N 22 30 12 16 995.7 995.5 0.0
08/07:00pm 22.2 21.6 20.5 90 1.1 NNE 24 33 13 18 995.6 995.4 0.0
08/06:30pm 22.2 22.4 20.5 90 1.1 N 20 39 11 21 995.9 995.7 0.0
08/06:00pm 22.0 19.3 20.5 91 1.0 NNE 35 44 19 24 994.3 994.1 0.0
08/05:30pm 21.9 18.4 20.4 91 1.0 NNE 39 50 21 27 994.0 993.8 0.0
08/05:00pm 22.3 18.8 20.4 89 1.2 NNE 39 50 21 27 993.9 993.7 0.0
08/04:30pm 22.2 18.7 20.5 90 1.1 NNE 39 50 21 27 994.2 994.0 0.0
08/04:00pm 22.2 18.6 20.1 88 1.4 NNE 39 50 21 27 995.1 994.9 0.0
08/03:30pm 22.1 19.3 20.2 89 1.2 NE 35 48 19 26 995.6 995.4 0.0
08/03:00pm 22.3 19.4 20.0 87 1.5 NNE 35 44 19 24 996.7 996.5 0.0
08/02:30pm 22.5 19.2 20.0 86 1.6 NNE 37 46 20 25 997.7 997.5 0.0
08/02:00pm 22.1 19.1 19.8 87 1.5 NNE 35 43 19 23 998.3 998.1 0.0
08/01:30pm 22.0 18.5 19.7 87 1.5 NNE 37 46 20 25 998.8 998.6 0.0
08/01:00pm 21.9 18.4 19.5 86 1.5 NNE 37 46 20 25 999.4 999.2 0.0
08/12:30pm 21.9 18.4 19.5 86 1.5 NNE 37 46 20 25 999.9 999.7 0.0
08/12:00pm 22.2 18.9 19.2 83 1.9 NNE 35 44 19 24 1000.6 1000.4 0.0
08/11:30am 21.9 19.0 19.3 85 1.7 NNE 33 41 18 22 1001.6 1001.4 0.0
08/11:00am 21.5 18.4 18.5 83 1.9 NNE 32 37 17 20 1002.4 1002.2 0.0
08/10:30am 21.3 18.1 18.1 82 2.0 NNE 32 39 17 21 1003.0 1002.8 0.0
08/10:00am 21.7 18.9 18.3 81 2.1 N 30 37 16 20 1003.8 1003.6 0.0
08/09:30am 21.2 19.6 18.4 84 1.8 N 24 32 13 17 1004.4 1004.3 0.0
08/09:00am 20.8 19.5 18.2 85 1.6 N 22 32 12 17 1005.0 1004.9 0.0
08/08:30am 20.1 19.2 18.1 88 1.2 N 20 28 11 15 1005.5 1005.4 0.0
08/08:00am 19.6 18.8 17.9 90 1.1 N 19 26 10 14 1006.0 1005.9 0.0
08/07:30am 19.4 18.6 18.1 92 0.8 N 19 26 10 14 1006.4 1006.3 0.0
08/07:00am 18.9 18.1 17.9 94 0.6 N 19 24 10 13 1006.7 1006.6 0.0
08/06:30am 18.6 18.0 17.6 94 0.6 NNW 17 22 9 12 1006.9 1006.8 0.0
08/06:00am 18.8 18.3 17.8 94 0.6 NNW 17 22 9 12 1007.3 1007.2 0.0
08/05:30am 18.7 18.2 17.7 94 0.6 N 17 24 9 13 1007.0 1006.9 0.0
08/05:00am 18.6 17.9 17.4 93 0.7 N 17 20 9 11 1007.2 1007.1 0.0
08/04:30am 18.6 18.3 17.4 93 0.7 N 15 19 8 10 1007.4 1007.3 0.0
08/04:00am 18.8 18.6 17.5 92 0.8 N 15 19 8 10 1007.9 1007.8 0.0
08/03:30am 18.8 18.9 17.5 92 0.8 NNW 13 17 7 9 1008.7 1008.6 0.0
08/03:00am 18.9 19.0 17.4 91 0.9 NNW 13 17 7 9 1009.4 1009.3 0.0
08/02:30am 18.9 19.0 17.4 91 0.9 NNW 13 17 7 9 1009.8 1009.7 0.0
08/02:00am 18.9 19.0 17.4 91 0.9 NNW 13 17 7 9 1010.2 1010.1 0.0
08/01:30am 18.9 18.9 17.2 90 1.0 NNW 13 17 7 9 1010.8 1010.7 0.0
08/01:00am 19.0 19.1 17.5 91 0.9 NNW 13 19 7 10 1011.4 1011.3 0.0
08/12:30am 18.4 18.7 16.9 91 0.9 NNW 11 15 6 8 1011.7 1011.6 0.0
08/12:00am 18.5 18.8 17.0 91 0.9 NNW 11 15 6 8 1011.8 1011.7 0.0

Latest Capital City Observations: Canberra | Sydney | Melbourne | Brisbane | Adelaide | Perth | Hobart | Darwin

Other Formats:

Comma delimited format used in spreadsheet applications
http://www.bom.gov.au/fwo/IDN60903/IDN60903.94939.axf

JavaScript Object Notation format (JSON) in row-major order
http://www.bom.gov.au/fwo/IDN60903/IDN60903.94939.json